sensor_id;sensor_type;location;lat;lon;timestamp;pressure;altitude;pressure_sealevel;temperature;humidity
20909;BME280;10614;53.198;6.570;2023-05-10T00:01:11;100712.22;;;12.63;100.00
20909;BME280;10614;53.198;6.570;2023-05-10T00:03:15;100707.78;;;12.63;100.00
20909;BME280;10614;53.198;6.570;2023-05-10T00:05:19;100758.44;;;12.89;100.00
20909;BME280;10614;53.198;6.570;2023-05-10T00:07:36;100719.38;;;12.78;100.00
20909;BME280;10614;53.198;6.570;2023-05-10T03:10:33;100722.63;;;12.12;100.00
20909;BME280;10614;53.198;6.570;2023-05-10T03:13:00;100707.91;;;12.08;100.00
20909;BME280;10614;53.198;6.570;2023-05-10T03:15:13;100692.63;;;11.96;100.00
20909;BME280;10614;53.198;6.570;2023-05-10T03:17:25;100729.69;;;12.12;100.00
20909;BME280;10614;53.198;6.570;2023-05-10T03:19:32;100695.50;;;11.91;100.00
20909;BME280;10614;53.198;6.570;2023-05-10T03:21:41;100712.47;;;12.04;100.00
20909;BME280;10614;53.198;6.570;2023-05-10T03:23:50;100689.00;;;11.98;100.00
20909;BME280;10614;53.198;6.570;2023-05-10T03:25:55;100713.03;;;12.11;100.00
20909;BME280;10614;53.198;6.570;2023-05-10T03:27:58;100671.16;;;11.84;100.00
20909;BME280;10614;53.198;6.570;2023-05-10T03:30:06;100701.50;;;11.95;100.00
20909;BME280;10614;53.198;6.570;2023-05-10T03:32:09;100713.47;;;12.02;100.00
20909;BME280;10614;53.198;6.570;2023-05-10T03:34:12;100727.91;;;12.12;100.00
20909;BME280;10614;53.198;6.570;2023-05-10T03:36:15;100704.06;;;11.96;100.00
20909;BME280;10614;53.198;6.570;2023-05-10T03:38:18;100737.22;;;12.19;100.00
20909;BME280;10614;53.198;6.570;2023-05-10T03:40:21;100739.97;;;12.18;100.00
20909;BME280;10614;53.198;6.570;2023-05-10T03:42:28;100705.25;;;11.89;100.00
20909;BME280;10614;53.198;6.570;2023-05-10T03:44:33;100703.56;;;11.88;100.00
20909;BME280;10614;53.198;6.570;2023-05-10T03:46:38;100704.19;;;11.93;100.00
20909;BME280;10614;53.198;6.570;2023-05-10T03:48:41;100718.81;;;12.00;100.00
20909;BME280;10614;53.198;6.570;2023-05-10T03:50:43;100722.59;;;11.95;100.00
20909;BME280;10614;53.198;6.570;2023-05-10T03:52:46;100703.50;;;11.90;100.00
20909;BME280;10614;53.198;6.570;2023-05-10T03:54:51;100717.16;;;11.98;100.00
20909;BME280;10614;53.198;6.570;2023-05-10T03:56:52;100734.75;;;12.16;100.00
20909;BME280;10614;53.198;6.570;2023-05-10T03:58:56;100731.44;;;12.13;100.00
20909;BME280;10614;53.198;6.570;2023-05-10T04:01:00;100705.13;;;11.92;100.00
20909;BME280;10614;53.198;6.570;2023-05-10T04:03:03;100714.63;;;11.96;100.00
20909;BME280;10614;53.198;6.570;2023-05-10T04:05:07;100714.84;;;11.92;100.00
20909;BME280;10614;53.198;6.570;2023-05-10T04:07:10;100696.38;;;11.92;100.00
20909;BME280;10614;53.198;6.570;2023-05-10T04:09:12;100728.13;;;12.08;100.00
20909;BME280;10614;53.198;6.570;2023-05-10T04:11:15;100699.25;;;11.86;100.00
20909;BME280;10614;53.198;6.570;2023-05-10T04:13:22;100690.78;;;11.79;100.00
20909;BME280;10614;53.198;6.570;2023-05-10T04:15:28;100718.28;;;12.11;100.00
20909;BME280;10614;53.198;6.570;2023-05-10T04:17:30;100670.91;;;11.72;100.00
20909;BME280;10614;53.198;6.570;2023-05-10T04:19:33;100682.66;;;11.65;100.00
20909;BME280;10614;53.198;6.570;2023-05-10T04:21:36;100736.56;;;11.97;100.00
20909;BME280;10614;53.198;6.570;2023-05-10T04:23:40;100709.47;;;11.74;100.00
20909;BME280;10614;53.198;6.570;2023-05-10T04:25:42;100699.19;;;11.68;100.00
20909;BME280;10614;53.198;6.570;2023-05-10T04:27:44;100744.38;;;12.17;100.00
20909;BME280;10614;53.198;6.570;2023-05-10T04:29:49;100718.16;;;11.95;100.00
20909;BME280;10614;53.198;6.570;2023-05-10T04:31:53;100709.47;;;11.93;100.00
20909;BME280;10614;53.198;6.570;2023-05-10T04:33:57;100744.06;;;12.06;100.00
20909;BME280;10614;53.198;6.570;2023-05-10T04:35:59;100699.69;;;11.76;100.00
20909;BME280;10614;53.198;6.570;2023-05-10T04:38:03;100730.34;;;11.79;100.00
20909;BME280;10614;53.198;6.570;2023-05-10T04:40:07;100736.84;;;11.91;100.00
20909;BME280;10614;53.198;6.570;2023-05-10T04:42:09;100717.53;;;11.71;100.00
20909;BME280;10614;53.198;6.570;2023-05-10T04:44:12;100712.81;;;11.59;100.00
20909;BME280;10614;53.198;6.570;2023-05-10T04:46:14;100716.72;;;11.69;100.00
20909;BME280;10614;53.198;6.570;2023-05-10T04:48:18;100760.06;;;11.82;100.00
20909;BME280;10614;53.198;6.570;2023-05-10T04:50:21;100700.19;;;11.47;100.00
20909;BME280;10614;53.198;6.570;2023-05-10T04:52:23;100745.75;;;11.88;100.00
20909;BME280;10614;53.198;6.570;2023-05-10T04:54:26;100741.06;;;11.95;100.00
20909;BME280;10614;53.198;6.570;2023-05-10T04:56:29;100754.06;;;11.79;100.00
20909;BME280;10614;53.198;6.570;2023-05-10T04:58:31;100751.38;;;11.80;100.00
20909;BME280;10614;53.198;6.570;2023-05-10T05:00:34;100734.56;;;11.64;100.00
20909;BME280;10614;53.198;6.570;2023-05-10T05:02:36;100773.97;;;11.86;100.00
20909;BME280;10614;53.198;6.570;2023-05-10T05:04:40;100743.38;;;11.82;100.00
20909;BME280;10614;53.198;6.570;2023-05-10T05:06:43;100759.28;;;11.80;100.00
20909;BME280;10614;53.198;6.570;2023-05-10T05:08:48;100735.41;;;11.65;100.00
20909;BME280;10614;53.198;6.570;2023-05-10T05:10:53;100753.91;;;11.63;100.00
20909;BME280;10614;53.198;6.570;2023-05-10T05:12:55;100731.22;;;11.40;100.00
20909;BME280;10614;53.198;6.570;2023-05-10T05:15:01;100763.03;;;11.56;100.00
20909;BME280;10614;53.198;6.570;2023-05-10T05:17:05;100750.22;;;11.48;100.00
20909;BME280;10614;53.198;6.570;2023-05-10T05:19:09;100728.81;;;11.35;100.00
20909;BME280;10614;53.198;6.570;2023-05-10T05:21:17;100748.53;;;11.66;100.00
20909;BME280;10614;53.198;6.570;2023-05-10T05:23:20;100754.44;;;11.71;100.00
20909;BME280;10614;53.198;6.570;2023-05-10T05:25:25;100754.56;;;11.68;100.00
20909;BME280;10614;53.198;6.570;2023-05-10T05:27:28;100750.22;;;11.67;100.00
20909;BME280;10614;53.198;6.570;2023-05-10T05:29:38;100782.44;;;11.74;100.00
20909;BME280;10614;53.198;6.570;2023-05-10T05:31:47;100753.28;;;11.58;100.00
20909;BME280;10614;53.198;6.570;2023-05-10T05:33:51;100729.13;;;11.48;100.00
20909;BME280;10614;53.198;6.570;2023-05-10T05:36:01;100771.31;;;11.67;100.00
20909;BME280;10614;53.198;6.570;2023-05-10T05:38:06;100770.75;;;11.79;100.00
20909;BME280;10614;53.198;6.570;2023-05-10T05:40:22;100771.69;;;11.78;100.00
20909;BME280;10614;53.198;6.570;2023-05-10T05:42:43;100798.53;;;11.87;100.00
20909;BME280;10614;53.198;6.570;2023-05-10T05:44:46;100800.41;;;11.84;100.00
20909;BME280;10614;53.198;6.570;2023-05-10T05:47:03;100779.81;;;11.74;100.00
20909;BME280;10614;53.198;6.570;2023-05-10T05:49:15;100766.78;;;11.71;100.00
20909;BME280;10614;53.198;6.570;2023-05-10T05:51:32;100786.91;;;11.92;100.00
20909;BME280;10614;53.198;6.570;2023-05-10T05:53:43;100778.06;;;11.73;100.00
20909;BME280;10614;53.198;6.570;2023-05-10T05:55:56;100781.66;;;11.72;100.00
20909;BME280;10614;53.198;6.570;2023-05-10T05:58:06;100779.59;;;11.78;100.00
20909;BME280;10614;53.198;6.570;2023-05-10T06:00:22;100819.78;;;12.04;100.00
20909;BME280;10614;53.198;6.570;2023-05-10T06:02:38;100783.44;;;11.71;100.00
20909;BME280;10614;53.198;6.570;2023-05-10T06:04:56;100771.94;;;11.72;100.00
20909;BME280;10614;53.198;6.570;2023-05-10T06:07:30;100834.03;;;12.00;100.00
20909;BME280;10614;53.198;6.570;2023-05-10T06:13:03;100778.28;;;11.68;100.00
20909;BME280;10614;53.198;6.570;2023-05-10T06:15:27;100836.19;;;12.11;100.00
20909;BME280;10614;53.198;6.570;2023-05-10T06:17:43;100812.34;;;11.93;100.00
20909;BME280;10614;53.198;6.570;2023-05-10T06:19:50;100778.84;;;11.56;100.00
20909;BME280;10614;53.198;6.570;2023-05-10T06:22:07;100830.06;;;11.71;100.00
20909;BME280;10614;53.198;6.570;2023-05-10T06:24:31;100806.81;;;11.79;100.00
20909;BME280;10614;53.198;6.570;2023-05-10T06:26:38;100805.13;;;11.78;100.00
20909;BME280;10614;53.198;6.570;2023-05-10T06:29:11;100822.19;;;11.69;100.00
20909;BME280;10614;53.198;6.570;2023-05-10T06:31:16;100820.84;;;11.79;100.00
20909;BME280;10614;53.198;6.570;2023-05-10T06:33:21;100851.56;;;12.01;100.00
20909;BME280;10614;53.198;6.570;2023-05-10T06:35:25;100838.81;;;11.71;100.00
20909;BME280;10614;53.198;6.570;2023-05-10T06:37:33;100835.69;;;11.82;100.00
20909;BME280;10614;53.198;6.570;2023-05-10T06:39:41;100817.69;;;11.52;100.00
20909;BME280;10614;53.198;6.570;2023-05-10T06:41:47;100857.28;;;11.92;100.00
20909;BME280;10614;53.198;6.570;2023-05-10T06:43:52;100838.94;;;11.68;100.00
20909;BME280;10614;53.198;6.570;2023-05-10T06:46:06;100843.69;;;11.80;100.00
20909;BME280;10614;53.198;6.570;2023-05-10T06:48:14;100831.03;;;11.68;100.00
20909;BME280;10614;53.198;6.570;2023-05-10T06:50:18;100856.97;;;12.17;100.00
20909;BME280;10614;53.198;6.570;2023-05-10T06:52:20;100851.38;;;11.85;100.00
20909;BME280;10614;53.198;6.570;2023-05-10T06:54:24;100870.47;;;11.92;100.00
20909;BME280;10614;53.198;6.570;2023-05-10T06:56:40;100880.47;;;11.83;100.00
20909;BME280;10614;53.198;6.570;2023-05-10T06:58:44;100854.88;;;11.86;100.00
20909;BME280;10614;53.198;6.570;2023-05-10T07:00:47;100888.44;;;12.21;100.00
20909;BME280;10614;53.198;6.570;2023-05-10T07:45:21;100908.28;;;12.49;100.00
20909;BME280;10614;53.198;6.570;2023-05-10T07:47:24;100912.72;;;12.49;100.00
20909;BME280;10614;53.198;6.570;2023-05-10T07:49:26;100901.16;;;12.51;100.00
20909;BME280;10614;53.198;6.570;2023-05-10T07:51:28;100927.19;;;12.59;100.00
20909;BME280;10614;53.198;6.570;2023-05-10T13:44:54;101212.63;;;14.63;100.00
20909;BME280;10614;53.198;6.570;2023-05-10T13:47:05;101209.44;;;14.56;100.00
20909;BME280;10614;53.198;6.570;2023-05-10T13:49:10;101237.25;;;14.65;100.00
20909;BME280;10614;53.198;6.570;2023-05-10T13:51:14;101205.34;;;14.49;100.00
20909;BME280;10614;53.198;6.570;2023-05-10T13:53:16;101209.88;;;14.47;100.00
20909;BME280;10614;53.198;6.570;2023-05-10T13:55:21;101207.66;;;14.56;100.00
20909;BME280;10614;53.198;6.570;2023-05-10T13:57:23;101236.13;;;14.70;100.00
20909;BME280;10614;53.198;6.570;2023-05-10T13:59:33;101185.41;;;14.42;100.00
20909;BME280;10614;53.198;6.570;2023-05-10T14:08:39;101235.19;;;15.22;100.00
20909;BME280;10614;53.198;6.570;2023-05-10T14:10:44;101232.13;;;15.30;100.00
20909;BME280;10614;53.198;6.570;2023-05-10T14:12:49;101194.00;;;14.99;100.00
20909;BME280;10614;53.198;6.570;2023-05-10T14:14:55;101228.34;;;15.18;100.00
20909;BME280;10614;53.198;6.570;2023-05-10T14:16:59;101226.69;;;15.15;100.00
20909;BME280;10614;53.198;6.570;2023-05-10T14:19:03;101179.94;;;14.97;100.00
20909;BME280;10614;53.198;6.570;2023-05-10T14:21:07;101229.41;;;15.31;100.00
20909;BME280;10614;53.198;6.570;2023-05-10T14:23:10;101240.00;;;15.47;100.00
20909;BME280;10614;53.198;6.570;2023-05-10T14:25:16;101209.66;;;15.53;100.00
20909;BME280;10614;53.198;6.570;2023-05-10T14:27:27;101228.06;;;15.56;100.00
20909;BME280;10614;53.198;6.570;2023-05-10T14:29:29;101218.41;;;15.55;100.00
20909;BME280;10614;53.198;6.570;2023-05-10T14:31:37;101171.66;;;15.52;100.00
20909;BME280;10614;53.198;6.570;2023-05-10T14:33:43;101202.34;;;15.74;100.00
20909;BME280;10614;53.198;6.570;2023-05-10T14:35:51;101220.66;;;15.78;100.00
20909;BME280;10614;53.198;6.570;2023-05-10T14:37:54;101201.97;;;15.64;100.00
20909;BME280;10614;53.198;6.570;2023-05-10T14:40:00;101191.53;;;15.77;100.00
20909;BME280;10614;53.198;6.570;2023-05-10T14:42:07;101230.91;;;16.00;100.00
20909;BME280;10614;53.198;6.570;2023-05-10T14:44:11;101199.41;;;15.94;100.00
20909;BME280;10614;53.198;6.570;2023-05-10T14:46:13;101230.84;;;16.18;100.00
20909;BME280;10614;53.198;6.570;2023-05-10T14:48:16;101212.91;;;16.06;100.00
20909;BME280;10614;53.198;6.570;2023-05-10T14:50:18;101241.59;;;16.31;100.00
20909;BME280;10614;53.198;6.570;2023-05-10T14:52:21;101229.84;;;16.35;100.00
20909;BME280;10614;53.198;6.570;2023-05-10T14:54:25;101237.88;;;16.49;100.00
20909;BME280;10614;53.198;6.570;2023-05-10T14:56:28;101235.41;;;16.46;100.00
20909;BME280;10614;53.198;6.570;2023-05-10T14:58:34;101224.44;;;16.36;100.00
20909;BME280;10614;53.198;6.570;2023-05-10T15:00:48;101234.78;;;16.41;100.00
20909;BME280;10614;53.198;6.570;2023-05-10T15:03:06;101222.28;;;16.43;100.00
20909;BME280;10614;53.198;6.570;2023-05-10T15:05:15;101229.97;;;16.48;100.00
20909;BME280;10614;53.198;6.570;2023-05-10T15:07:23;101240.06;;;16.57;100.00
20909;BME280;10614;53.198;6.570;2023-05-10T15:09:41;101195.94;;;16.24;100.00
20909;BME280;10614;53.198;6.570;2023-05-10T15:11:59;101236.41;;;16.43;100.00
20909;BME280;10614;53.198;6.570;2023-05-10T15:19:51;101242.06;;;16.07;100.00
20909;BME280;10614;53.198;6.570;2023-05-10T15:22:10;101241.13;;;15.92;100.00
20909;BME280;10614;53.198;6.570;2023-05-10T15:24:20;101255.16;;;15.78;100.00
20909;BME280;10614;53.198;6.570;2023-05-10T15:26:22;101240.53;;;15.71;100.00
20909;BME280;10614;53.198;6.570;2023-05-10T15:28:34;101264.22;;;15.74;100.00
20909;BME280;10614;53.198;6.570;2023-05-10T15:30:38;101234.56;;;15.50;100.00
20909;BME280;10614;53.198;6.570;2023-05-10T15:32:44;101253.66;;;15.57;100.00
20909;BME280;10614;53.198;6.570;2023-05-10T15:34:51;101253.75;;;15.55;100.00
20909;BME280;10614;53.198;6.570;2023-05-10T15:36:54;101238.63;;;15.40;100.00
20909;BME280;10614;53.198;6.570;2023-05-10T15:38:57;101258.16;;;15.39;100.00
20909;BME280;10614;53.198;6.570;2023-05-10T15:41:06;101221.53;;;15.12;100.00
20909;BME280;10614;53.198;6.570;2023-05-10T15:43:12;101230.75;;;15.05;100.00
20909;BME280;10614;53.198;6.570;2023-05-10T15:45:16;101239.34;;;15.10;100.00
20909;BME280;10614;53.198;6.570;2023-05-10T15:47:21;101244.00;;;15.05;100.00
20909;BME280;10614;53.198;6.570;2023-05-10T15:49:37;101250.34;;;15.03;100.00
20909;BME280;10614;53.198;6.570;2023-05-10T15:51:48;101264.50;;;15.19;100.00
20909;BME280;10614;53.198;6.570;2023-05-10T15:53:53;101276.38;;;15.12;100.00
20909;BME280;10614;53.198;6.570;2023-05-10T15:56:02;101284.13;;;14.99;100.00
20909;BME280;10614;53.198;6.570;2023-05-10T15:58:05;101249.66;;;14.99;100.00
20909;BME280;10614;53.198;6.570;2023-05-10T16:00:09;101268.22;;;14.99;100.00
20909;BME280;10614;53.198;6.570;2023-05-10T16:02:15;101273.66;;;14.96;100.00
20909;BME280;10614;53.198;6.570;2023-05-10T16:04:18;101288.69;;;14.95;100.00
20909;BME280;10614;53.198;6.570;2023-05-10T16:06:24;101271.97;;;14.77;100.00
20909;BME280;10614;53.198;6.570;2023-05-10T16:08:32;101282.25;;;14.66;100.00
20909;BME280;10614;53.198;6.570;2023-05-10T16:21:38;101272.50;;;14.67;100.00
20909;BME280;10614;53.198;6.570;2023-05-10T16:26:47;101292.34;;;14.58;100.00
20909;BME280;10614;53.198;6.570;2023-05-10T16:28:52;101272.38;;;14.51;100.00
20909;BME280;10614;53.198;6.570;2023-05-10T16:30:58;101261.34;;;14.60;100.00
20909;BME280;10614;53.198;6.570;2023-05-10T16:33:06;101314.66;;;14.89;100.00
20909;BME280;10614;53.198;6.570;2023-05-10T16:35:09;101302.97;;;14.93;100.00
20909;BME280;10614;53.198;6.570;2023-05-10T16:37:15;101313.81;;;15.06;100.00
20909;BME280;10614;53.198;6.570;2023-05-10T16:39:18;101302.66;;;14.99;100.00
20909;BME280;10614;53.198;6.570;2023-05-10T16:41:21;101315.94;;;14.99;100.00
20909;BME280;10614;53.198;6.570;2023-05-10T16:43:25;101280.06;;;14.74;100.00
20909;BME280;10614;53.198;6.570;2023-05-10T16:45:32;101308.03;;;14.97;100.00
20909;BME280;10614;53.198;6.570;2023-05-10T16:47:36;101302.28;;;14.89;100.00
20909;BME280;10614;53.198;6.570;2023-05-10T16:49:44;101294.81;;;14.80;100.00
20909;BME280;10614;53.198;6.570;2023-05-10T16:51:49;101289.41;;;14.82;100.00
20909;BME280;10614;53.198;6.570;2023-05-10T16:53:52;101318.19;;;15.07;100.00
20909;BME280;10614;53.198;6.570;2023-05-10T16:55:57;101313.88;;;15.39;100.00
20909;BME280;10614;53.198;6.570;2023-05-10T16:57:59;101307.88;;;15.69;100.00
20909;BME280;10614;53.198;6.570;2023-05-10T17:00:14;101315.88;;;16.00;100.00
20909;BME280;10614;53.198;6.570;2023-05-10T17:02:30;101329.69;;;16.07;100.00
20909;BME280;10614;53.198;6.570;2023-05-10T17:04:47;101311.22;;;15.72;100.00
20909;BME280;10614;53.198;6.570;2023-05-10T17:07:05;101312.53;;;15.63;100.00
20909;BME280;10614;53.198;6.570;2023-05-10T17:45:02;101345.41;;;14.19;100.00
20909;BME280;10614;53.198;6.570;2023-05-10T17:47:10;101372.78;;;14.19;100.00
20909;BME280;10614;53.198;6.570;2023-05-10T17:49:16;101352.34;;;14.02;100.00
20909;BME280;10614;53.198;6.570;2023-05-10T17:51:19;101320.59;;;13.83;100.00
20909;BME280;10614;53.198;6.570;2023-05-10T17:53:22;101367.69;;;14.14;100.00
20909;BME280;10614;53.198;6.570;2023-05-10T17:55:27;101375.25;;;14.41;100.00
20909;BME280;10614;53.198;6.570;2023-05-10T17:57:30;101372.84;;;14.55;100.00
20909;BME280;10614;53.198;6.570;2023-05-10T17:59:33;101350.81;;;14.72;100.00
20909;BME280;10614;53.198;6.570;2023-05-10T18:01:39;101375.31;;;15.12;100.00
20909;BME280;10614;53.198;6.570;2023-05-10T18:03:42;101374.13;;;15.19;100.00
20909;BME280;10614;53.198;6.570;2023-05-10T18:05:45;101375.31;;;15.12;100.00
20909;BME280;10614;53.198;6.570;2023-05-10T18:07:48;101348.50;;;14.84;100.00
20909;BME280;10614;53.198;6.570;2023-05-10T18:09:51;101385.38;;;14.88;100.00
20909;BME280;10614;53.198;6.570;2023-05-10T18:11:54;101370.53;;;14.67;100.00
20909;BME280;10614;53.198;6.570;2023-05-10T18:13:57;101365.72;;;14.37;100.00
20909;BME280;10614;53.198;6.570;2023-05-10T18:16:00;101396.38;;;14.43;100.00
20909;BME280;10614;53.198;6.570;2023-05-10T18:18:06;101390.38;;;14.20;100.00
20909;BME280;10614;53.198;6.570;2023-05-10T18:20:13;101391.84;;;14.07;100.00
20909;BME280;10614;53.198;6.570;2023-05-10T18:22:16;101370.75;;;13.86;100.00
20909;BME280;10614;53.198;6.570;2023-05-10T18:24:18;101382.78;;;13.93;100.00
20909;BME280;10614;53.198;6.570;2023-05-10T18:26:24;101387.06;;;13.96;100.00
20909;BME280;10614;53.198;6.570;2023-05-10T18:28:31;101346.31;;;13.61;100.00
20909;BME280;10614;53.198;6.570;2023-05-10T18:30:36;101363.53;;;13.69;100.00
20909;BME280;10614;53.198;6.570;2023-05-10T18:32:41;101376.78;;;13.69;100.00
20909;BME280;10614;53.198;6.570;2023-05-10T18:34:48;101381.09;;;13.51;100.00
20909;BME280;10614;53.198;6.570;2023-05-10T18:36:53;101387.66;;;13.43;100.00
20909;BME280;10614;53.198;6.570;2023-05-10T18:38:57;101410.25;;;13.50;100.00
20909;BME280;10614;53.198;6.570;2023-05-10T18:40:59;101389.59;;;13.39;100.00
20909;BME280;10614;53.198;6.570;2023-05-10T18:43:02;101408.66;;;13.46;100.00
20909;BME280;10614;53.198;6.570;2023-05-10T18:45:04;101413.19;;;13.44;100.00
20909;BME280;10614;53.198;6.570;2023-05-10T18:47:09;101415.81;;;13.44;100.00
20909;BME280;10614;53.198;6.570;2023-05-10T18:49:12;101415.34;;;13.55;100.00
20909;BME280;10614;53.198;6.570;2023-05-10T18:51:16;101414.69;;;13.49;100.00
20909;BME280;10614;53.198;6.570;2023-05-10T18:53:19;101402.41;;;13.28;100.00
20909;BME280;10614;53.198;6.570;2023-05-10T18:55:23;101416.47;;;13.28;100.00
20909;BME280;10614;53.198;6.570;2023-05-10T18:57:28;101402.28;;;13.09;100.00
20909;BME280;10614;53.198;6.570;2023-05-10T18:59:30;101401.47;;;13.07;100.00
20909;BME280;10614;53.198;6.570;2023-05-10T19:01:32;101423.22;;;13.14;100.00
20909;BME280;10614;53.198;6.570;2023-05-10T19:03:34;101395.63;;;12.99;100.00
20909;BME280;10614;53.198;6.570;2023-05-10T19:05:36;101432.91;;;13.13;100.00
20909;BME280;10614;53.198;6.570;2023-05-10T19:07:40;101393.38;;;12.89;100.00
20909;BME280;10614;53.198;6.570;2023-05-10T19:09:43;101431.88;;;13.17;100.00
20909;BME280;10614;53.198;6.570;2023-05-10T19:11:45;101425.56;;;12.99;100.00
20909;BME280;10614;53.198;6.570;2023-05-10T19:13:46;101432.44;;;13.03;100.00
20909;BME280;10614;53.198;6.570;2023-05-10T19:16:02;101442.22;;;13.01;100.00
20909;BME280;10614;53.198;6.570;2023-05-10T19:18:05;101421.72;;;12.86;100.00
20909;BME280;10614;53.198;6.570;2023-05-10T19:20:09;101418.22;;;12.85;100.00
20909;BME280;10614;53.198;6.570;2023-05-10T19:22:11;101437.09;;;12.97;100.00
20909;BME280;10614;53.198;6.570;2023-05-10T19:24:14;101451.03;;;13.02;100.00
20909;BME280;10614;53.198;6.570;2023-05-10T19:26:17;101448.28;;;13.03;100.00
20909;BME280;10614;53.198;6.570;2023-05-10T19:28:19;101429.16;;;12.76;100.00
20909;BME280;10614;53.198;6.570;2023-05-10T19:30:21;101443.06;;;12.80;100.00
20909;BME280;10614;53.198;6.570;2023-05-10T19:32:23;101449.16;;;12.82;100.00
20909;BME280;10614;53.198;6.570;2023-05-10T19:34:25;101460.97;;;12.95;100.00
20909;BME280;10614;53.198;6.570;2023-05-10T19:36:27;101447.88;;;12.92;100.00
20909;BME280;10614;53.198;6.570;2023-05-10T19:38:29;101439.53;;;12.81;100.00
20909;BME280;10614;53.198;6.570;2023-05-10T19:40:32;101432.78;;;12.74;100.00
20909;BME280;10614;53.198;6.570;2023-05-10T19:42:35;101460.53;;;12.84;100.00
20909;BME280;10614;53.198;6.570;2023-05-10T19:44:37;101449.88;;;12.63;100.00
20909;BME280;10614;53.198;6.570;2023-05-10T19:46:39;101457.69;;;12.66;100.00
20909;BME280;10614;53.198;6.570;2023-05-10T19:48:41;101443.94;;;12.58;100.00
20909;BME280;10614;53.198;6.570;2023-05-10T19:50:43;101469.31;;;12.62;100.00
20909;BME280;10614;53.198;6.570;2023-05-10T19:52:47;101422.06;;;12.31;100.00
20909;BME280;10614;53.198;6.570;2023-05-10T19:54:49;101448.63;;;12.50;100.00
20909;BME280;10614;53.198;6.570;2023-05-10T19:56:53;101444.81;;;12.35;100.00
20909;BME280;10614;53.198;6.570;2023-05-10T19:58:55;101469.66;;;12.53;100.00
20909;BME280;10614;53.198;6.570;2023-05-10T20:00:57;101443.34;;;12.27;100.00
20909;BME280;10614;53.198;6.570;2023-05-10T20:02:59;101474.78;;;12.34;100.00
20909;BME280;10614;53.198;6.570;2023-05-10T20:05:01;101448.59;;;12.28;100.00
20909;BME280;10614;53.198;6.570;2023-05-10T20:07:05;101471.16;;;12.37;100.00
20909;BME280;10614;53.198;6.570;2023-05-10T20:09:07;101460.81;;;12.31;100.00
20909;BME280;10614;53.198;6.570;2023-05-10T20:11:09;101464.13;;;12.36;100.00
20909;BME280;10614;53.198;6.570;2023-05-10T20:13:14;101446.00;;;12.27;100.00
20909;BME280;10614;53.198;6.570;2023-05-10T20:15:17;101466.69;;;12.39;100.00
20909;BME280;10614;53.198;6.570;2023-05-10T20:17:19;101458.50;;;12.21;100.00
20909;BME280;10614;53.198;6.570;2023-05-10T20:19:21;101444.81;;;12.12;100.00
20909;BME280;10614;53.198;6.570;2023-05-10T20:21:24;101469.59;;;12.31;100.00
20909;BME280;10614;53.198;6.570;2023-05-10T20:23:27;101452.72;;;12.12;100.00
20909;BME280;10614;53.198;6.570;2023-05-10T20:25:29;101470.00;;;12.20;100.00
20909;BME280;10614;53.198;6.570;2023-05-10T20:27:32;101471.53;;;12.26;100.00
20909;BME280;10614;53.198;6.570;2023-05-10T20:29:39;101469.59;;;12.31;100.00
20909;BME280;10614;53.198;6.570;2023-05-10T20:31:48;101443.25;;;12.06;100.00
20909;BME280;10614;53.198;6.570;2023-05-10T20:33:54;101478.81;;;12.19;100.00
20909;BME280;10614;53.198;6.570;2023-05-10T20:35:59;101454.72;;;12.05;100.00
20909;BME280;10614;53.198;6.570;2023-05-10T20:38:01;101468.34;;;12.18;100.00
20909;BME280;10614;53.198;6.570;2023-05-10T20:40:05;101476.34;;;12.38;100.00
20909;BME280;10614;53.198;6.570;2023-05-10T20:42:10;101440.78;;;12.01;100.00
20909;BME280;10614;53.198;6.570;2023-05-10T20:44:13;101466.66;;;11.92;100.00
20909;BME280;10614;53.198;6.570;2023-05-10T20:46:23;101451.44;;;11.73;100.00
20909;BME280;10614;53.198;6.570;2023-05-10T20:48:30;101463.13;;;11.66;100.00
20909;BME280;10614;53.198;6.570;2023-05-10T20:50:35;101469.41;;;11.62;100.00
20909;BME280;10614;53.198;6.570;2023-05-10T20:52:38;101442.81;;;11.43;100.00
20909;BME280;10614;53.198;6.570;2023-05-10T20:54:40;101462.88;;;11.47;100.00
20909;BME280;10614;53.198;6.570;2023-05-10T20:56:42;101485.50;;;11.54;100.00
20909;BME280;10614;53.198;6.570;2023-05-10T20:58:45;101489.13;;;11.50;100.00
20909;BME280;10614;53.198;6.570;2023-05-10T21:01:11;101491.00;;;11.47;100.00
20909;BME280;10614;53.198;6.570;2023-05-10T21:39:32;101476.56;;;11.32;100.00
20909;BME280;10614;53.198;6.570;2023-05-10T21:41:35;101471.44;;;11.27;100.00
20909;BME280;10614;53.198;6.570;2023-05-10T21:43:37;101463.97;;;11.13;100.00
20909;BME280;10614;53.198;6.570;2023-05-10T21:45:40;101473.25;;;11.25;100.00
20909;BME280;10614;53.198;6.570;2023-05-10T21:47:42;101484.44;;;11.33;100.00
20909;BME280;10614;53.198;6.570;2023-05-10T21:49:44;101493.34;;;11.29;100.00
20909;BME280;10614;53.198;6.570;2023-05-10T21:51:48;101474.34;;;11.19;100.00
20909;BME280;10614;53.198;6.570;2023-05-10T21:53:50;101465.66;;;11.16;100.00
20909;BME280;10614;53.198;6.570;2023-05-10T21:55:54;101498.59;;;11.29;100.00
20909;BME280;10614;53.198;6.570;2023-05-10T21:57:57;101478.91;;;11.14;100.00
20909;BME280;10614;53.198;6.570;2023-05-10T22:00:01;101444.44;;;10.92;100.00
20909;BME280;10614;53.198;6.570;2023-05-10T22:02:05;101452.22;;;10.97;100.00
20909;BME280;10614;53.198;6.570;2023-05-10T22:04:09;101484.25;;;11.11;100.00
20909;BME280;10614;53.198;6.570;2023-05-10T22:06:14;101472.19;;;11.04;100.00